sensor_id;sensor_type;location;lat;lon;timestamp;temperature;humidity
7155;DHT22;3619;53.784;10.440;2023-02-01T00:00:03;4.90;99.90
7155;DHT22;3619;53.784;10.440;2023-02-01T00:02:33;5.00;99.90
7155;DHT22;3619;53.784;10.440;2023-02-01T00:05:01;5.00;99.90
7155;DHT22;3619;53.784;10.440;2023-02-01T00:07:28;5.00;99.90
7155;DHT22;3619;53.784;10.440;2023-02-01T00:09:55;5.00;99.90
7155;DHT22;3619;53.784;10.440;2023-02-01T00:12:22;4.90;99.90
7155;DHT22;3619;53.784;10.440;2023-02-01T00:14:50;5.00;99.90
7155;DHT22;3619;53.784;10.440;2023-02-01T00:17:20;5.00;99.90
7155;DHT22;3619;53.784;10.440;2023-02-01T00:19:47;5.00;99.90
7155;DHT22;3619;53.784;10.440;2023-02-01T00:22:13;5.00;99.90
7155;DHT22;3619;53.784;10.440;2023-02-01T00:24:40;5.10;99.90
7155;DHT22;3619;53.784;10.440;2023-02-01T00:27:07;5.10;99.90
7155;DHT22;3619;53.784;10.440;2023-02-01T00:29:34;5.00;99.90
7155;DHT22;3619;53.784;10.440;2023-02-01T00:32:01;5.10;99.90
7155;DHT22;3619;53.784;10.440;2023-02-01T00:34:29;5.00;99.90
7155;DHT22;3619;53.784;10.440;2023-02-01T00:36:56;5.00;99.90
7155;DHT22;3619;53.784;10.440;2023-02-01T00:39:23;5.00;99.90
7155;DHT22;3619;53.784;10.440;2023-02-01T00:41:56;5.00;99.90
7155;DHT22;3619;53.784;10.440;2023-02-01T00:44:23;5.00;99.90
7155;DHT22;3619;53.784;10.440;2023-02-01T00:46:50;5.00;99.90
7155;DHT22;3619;53.784;10.440;2023-02-01T00:49:17;5.00;99.90
7155;DHT22;3619;53.784;10.440;2023-02-01T00:51:45;5.00;99.90
7155;DHT22;3619;53.784;10.440;2023-02-01T00:54:15;5.00;99.90
7155;DHT22;3619;53.784;10.440;2023-02-01T00:56:42;5.00;99.90
7155;DHT22;3619;53.784;10.440;2023-02-01T00:59:10;5.00;99.90
7155;DHT22;3619;53.784;10.440;2023-02-01T01:01:37;5.00;99.90
7155;DHT22;3619;53.784;10.440;2023-02-01T01:04:04;5.00;99.90
7155;DHT22;3619;53.784;10.440;2023-02-01T01:06:34;5.00;99.90
7155;DHT22;3619;53.784;10.440;2023-02-01T01:09:04;5.10;99.90
7155;DHT22;3619;53.784;10.440;2023-02-01T01:11:34;5.00;99.90
7155;DHT22;3619;53.784;10.440;2023-02-01T01:14:01;5.10;99.90
7155;DHT22;3619;53.784;10.440;2023-02-01T01:16:30;5.10;99.90
7155;DHT22;3619;53.784;10.440;2023-02-01T01:18:59;5.10;99.90
7155;DHT22;3619;53.784;10.440;2023-02-01T01:21:26;5.10;99.90
7155;DHT22;3619;53.784;10.440;2023-02-01T01:23:53;5.10;99.90
7155;DHT22;3619;53.784;10.440;2023-02-01T01:26:31;5.10;99.90
7155;DHT22;3619;53.784;10.440;2023-02-01T01:28:58;5.20;99.90
7155;DHT22;3619;53.784;10.440;2023-02-01T01:31:26;5.20;99.90
7155;DHT22;3619;53.784;10.440;2023-02-01T01:33:58;5.20;99.90
7155;DHT22;3619;53.784;10.440;2023-02-01T01:36:26;5.30;99.90
7155;DHT22;3619;53.784;10.440;2023-02-01T01:38:56;5.30;99.90
7155;DHT22;3619;53.784;10.440;2023-02-01T01:41:25;5.30;99.90
7155;DHT22;3619;53.784;10.440;2023-02-01T01:43:56;5.20;99.90
7155;DHT22;3619;53.784;10.440;2023-02-01T01:46:34;5.20;99.90
7155;DHT22;3619;53.784;10.440;2023-02-01T01:49:05;5.30;99.90
7155;DHT22;3619;53.784;10.440;2023-02-01T01:51:36;5.30;99.90
7155;DHT22;3619;53.784;10.440;2023-02-01T01:54:08;5.30;99.90
7155;DHT22;3619;53.784;10.440;2023-02-01T01:56:37;5.30;99.90
7155;DHT22;3619;53.784;10.440;2023-02-01T01:59:06;5.20;99.90
7155;DHT22;3619;53.784;10.440;2023-02-01T02:01:34;5.30;99.90
7155;DHT22;3619;53.784;10.440;2023-02-01T02:04:01;5.30;99.90
7155;DHT22;3619;53.784;10.440;2023-02-01T02:06:42;5.30;99.90
7155;DHT22;3619;53.784;10.440;2023-02-01T02:09:11;5.30;99.90
7155;DHT22;3619;53.784;10.440;2023-02-01T02:11:39;5.30;99.90
7155;DHT22;3619;53.784;10.440;2023-02-01T02:14:09;5.30;99.90
7155;DHT22;3619;53.784;10.440;2023-02-01T02:16:52;5.30;99.90
7155;DHT22;3619;53.784;10.440;2023-02-01T02:19:54;5.30;99.90
7155;DHT22;3619;53.784;10.440;2023-02-01T02:22:53;5.30;99.90
7155;DHT22;3619;53.784;10.440;2023-02-01T02:25:56;5.40;99.90
7155;DHT22;3619;53.784;10.440;2023-02-01T02:28:52;5.40;99.90
7155;DHT22;3619;53.784;10.440;2023-02-01T02:31:40;5.40;99.90
7155;DHT22;3619;53.784;10.440;2023-02-01T02:34:17;5.40;99.90
7155;DHT22;3619;53.784;10.440;2023-02-01T02:36:56;5.50;99.90
7155;DHT22;3619;53.784;10.440;2023-02-01T02:39:36;5.40;99.90
7155;DHT22;3619;53.784;10.440;2023-02-01T02:42:27;5.40;99.90
7155;DHT22;3619;53.784;10.440;2023-02-01T02:45:17;5.40;99.90
7155;DHT22;3619;53.784;10.440;2023-02-01T02:48:11;5.40;99.90
7155;DHT22;3619;53.784;10.440;2023-02-01T02:50:46;5.40;99.90
7155;DHT22;3619;53.784;10.440;2023-02-01T02:53:37;5.40;99.90
7155;DHT22;3619;53.784;10.440;2023-02-01T02:56:28;5.50;99.90
7155;DHT22;3619;53.784;10.440;2023-02-01T02:59:17;5.50;99.90
7155;DHT22;3619;53.784;10.440;2023-02-01T03:02:04;5.50;99.90
7155;DHT22;3619;53.784;10.440;2023-02-01T03:04:52;5.50;99.90
7155;DHT22;3619;53.784;10.440;2023-02-01T03:07:54;5.50;99.90
7155;DHT22;3619;53.784;10.440;2023-02-01T03:10:27;5.60;99.90
7155;DHT22;3619;53.784;10.440;2023-02-01T03:13:03;5.50;99.90
7155;DHT22;3619;53.784;10.440;2023-02-01T03:15:39;5.50;99.90
7155;DHT22;3619;53.784;10.440;2023-02-01T03:18:14;5.50;99.90
7155;DHT22;3619;53.784;10.440;2023-02-01T03:20:51;5.50;99.90
7155;DHT22;3619;53.784;10.440;2023-02-01T03:23:28;5.40;99.90
7155;DHT22;3619;53.784;10.440;2023-02-01T03:25:58;5.30;99.90
7155;DHT22;3619;53.784;10.440;2023-02-01T03:28:31;5.20;99.90
7155;DHT22;3619;53.784;10.440;2023-02-01T03:31:03;5.00;99.90
7155;DHT22;3619;53.784;10.440;2023-02-01T03:33:30;5.00;99.90
7155;DHT22;3619;53.784;10.440;2023-02-01T03:36:15;4.90;99.90
7155;DHT22;3619;53.784;10.440;2023-02-01T03:38:50;4.90;99.90
7155;DHT22;3619;53.784;10.440;2023-02-01T03:41:26;4.90;99.90
7155;DHT22;3619;53.784;10.440;2023-02-01T03:43:55;4.90;99.90
7155;DHT22;3619;53.784;10.440;2023-02-01T03:46:32;4.80;99.90
7155;DHT22;3619;53.784;10.440;2023-02-01T03:49:02;4.80;99.90
7155;DHT22;3619;53.784;10.440;2023-02-01T03:51:30;4.80;99.90
7155;DHT22;3619;53.784;10.440;2023-02-01T03:54:02;4.90;99.90
7155;DHT22;3619;53.784;10.440;2023-02-01T03:56:36;4.80;99.90
7155;DHT22;3619;53.784;10.440;2023-02-01T03:59:04;4.80;99.90
7155;DHT22;3619;53.784;10.440;2023-02-01T04:01:31;4.80;99.90
7155;DHT22;3619;53.784;10.440;2023-02-01T04:04:05;4.60;99.90
7155;DHT22;3619;53.784;10.440;2023-02-01T04:06:48;4.50;99.90
7155;DHT22;3619;53.784;10.440;2023-02-01T04:09:17;4.30;99.90
7155;DHT22;3619;53.784;10.440;2023-02-01T04:11:55;4.30;99.90
7155;DHT22;3619;53.784;10.440;2023-02-01T04:14:22;4.30;99.90
7155;DHT22;3619;53.784;10.440;2023-02-01T04:16:51;4.20;99.90
7155;DHT22;3619;53.784;10.440;2023-02-01T04:19:45;4.20;99.90
7155;DHT22;3619;53.784;10.440;2023-02-01T04:22:52;4.30;99.90
7155;DHT22;3619;53.784;10.440;2023-02-01T04:25:20;4.30;99.90
7155;DHT22;3619;53.784;10.440;2023-02-01T04:27:50;4.30;99.90
7155;DHT22;3619;53.784;10.440;2023-02-01T04:30:17;4.30;99.90
7155;DHT22;3619;53.784;10.440;2023-02-01T04:32:45;4.20;99.90
7155;DHT22;3619;53.784;10.440;2023-02-01T04:35:13;4.20;99.90
7155;DHT22;3619;53.784;10.440;2023-02-01T04:37:42;4.20;99.90
7155;DHT22;3619;53.784;10.440;2023-02-01T04:40:15;4.10;99.90
7155;DHT22;3619;53.784;10.440;2023-02-01T04:42:46;4.10;99.90
7155;DHT22;3619;53.784;10.440;2023-02-01T04:45:15;4.10;99.90
7155;DHT22;3619;53.784;10.440;2023-02-01T04:47:48;4.10;99.90
7155;DHT22;3619;53.784;10.440;2023-02-01T04:50:16;4.10;99.90
7155;DHT22;3619;53.784;10.440;2023-02-01T04:52:48;4.10;99.90
7155;DHT22;3619;53.784;10.440;2023-02-01T04:55:18;4.10;99.90
7155;DHT22;3619;53.784;10.440;2023-02-01T04:57:54;4.10;99.90
7155;DHT22;3619;53.784;10.440;2023-02-01T05:00:48;4.10;99.90
7155;DHT22;3619;53.784;10.440;2023-02-01T05:03:18;4.10;99.90
7155;DHT22;3619;53.784;10.440;2023-02-01T05:05:49;4.10;99.90
7155;DHT22;3619;53.784;10.440;2023-02-01T05:08:17;3.90;99.90
7155;DHT22;3619;53.784;10.440;2023-02-01T05:13:46;3.80;99.90
7155;DHT22;3619;53.784;10.440;2023-02-01T05:16:15;3.90;99.90
7155;DHT22;3619;53.784;10.440;2023-02-01T05:18:45;3.80;99.90
7155;DHT22;3619;53.784;10.440;2023-02-01T05:21:12;3.90;99.90
7155;DHT22;3619;53.784;10.440;2023-02-01T05:23:39;4.10;99.90
7155;DHT22;3619;53.784;10.440;2023-02-01T05:26:25;4.10;99.90
7155;DHT22;3619;53.784;10.440;2023-02-01T05:28:58;4.20;99.90
7155;DHT22;3619;53.784;10.440;2023-02-01T05:31:25;4.30;99.90
7155;DHT22;3619;53.784;10.440;2023-02-01T05:33:54;4.30;99.90
7155;DHT22;3619;53.784;10.440;2023-02-01T05:36:28;4.40;99.90
7155;DHT22;3619;53.784;10.440;2023-02-01T05:39:12;4.40;99.90
7155;DHT22;3619;53.784;10.440;2023-02-01T05:41:50;4.40;99.90
7155;DHT22;3619;53.784;10.440;2023-02-01T05:44:23;4.40;99.90
7155;DHT22;3619;53.784;10.440;2023-02-01T05:46:52;4.30;99.90
7155;DHT22;3619;53.784;10.440;2023-02-01T05:49:34;4.40;99.90
7155;DHT22;3619;53.784;10.440;2023-02-01T05:52:06;4.40;99.90
7155;DHT22;3619;53.784;10.440;2023-02-01T05:54:35;4.40;99.90
7155;DHT22;3619;53.784;10.440;2023-02-01T05:57:05;4.40;99.90
7155;DHT22;3619;53.784;10.440;2023-02-01T05:59:41;4.40;99.90
7155;DHT22;3619;53.784;10.440;2023-02-01T06:02:10;4.40;99.90
7155;DHT22;3619;53.784;10.440;2023-02-01T06:04:37;4.30;99.90
7155;DHT22;3619;53.784;10.440;2023-02-01T06:07:07;4.20;99.90
7155;DHT22;3619;53.784;10.440;2023-02-01T06:09:36;4.10;99.90
7155;DHT22;3619;53.784;10.440;2023-02-01T06:12:03;4.00;99.90
7155;DHT22;3619;53.784;10.440;2023-02-01T06:14:30;4.00;99.90
7155;DHT22;3619;53.784;10.440;2023-02-01T06:17:01;4.00;99.90
7155;DHT22;3619;53.784;10.440;2023-02-01T06:19:28;3.90;99.90
7155;DHT22;3619;53.784;10.440;2023-02-01T06:21:56;3.90;99.90
7155;DHT22;3619;53.784;10.440;2023-02-01T06:24:23;3.90;99.90
7155;DHT22;3619;53.784;10.440;2023-02-01T06:26:51;3.90;99.90
7155;DHT22;3619;53.784;10.440;2023-02-01T06:29:20;3.90;99.90
7155;DHT22;3619;53.784;10.440;2023-02-01T06:31:47;3.90;99.90
7155;DHT22;3619;53.784;10.440;2023-02-01T06:34:18;3.90;99.90
7155;DHT22;3619;53.784;10.440;2023-02-01T06:36:45;3.80;99.90
7155;DHT22;3619;53.784;10.440;2023-02-01T06:39:11;3.80;99.90
7155;DHT22;3619;53.784;10.440;2023-02-01T06:41:41;3.80;99.90
7155;DHT22;3619;53.784;10.440;2023-02-01T06:44:08;3.70;99.90
7155;DHT22;3619;53.784;10.440;2023-02-01T06:46:35;3.70;99.90
7155;DHT22;3619;53.784;10.440;2023-02-01T06:49:04;3.60;99.90
7155;DHT22;3619;53.784;10.440;2023-02-01T06:51:35;3.60;99.90
7155;DHT22;3619;53.784;10.440;2023-02-01T06:54:02;3.60;99.90
7155;DHT22;3619;53.784;10.440;2023-02-01T06:56:29;3.50;99.90
7155;DHT22;3619;53.784;10.440;2023-02-01T06:58:58;3.60;99.90
7155;DHT22;3619;53.784;10.440;2023-02-01T07:01:26;3.60;99.90
7155;DHT22;3619;53.784;10.440;2023-02-01T07:03:55;3.60;99.90
7155;DHT22;3619;53.784;10.440;2023-02-01T07:06:24;3.60;99.90
7155;DHT22;3619;53.784;10.440;2023-02-01T07:08:52;3.60;99.90
7155;DHT22;3619;53.784;10.440;2023-02-01T07:11:21;3.70;99.90
7155;DHT22;3619;53.784;10.440;2023-02-01T07:13:49;3.70;99.90
7155;DHT22;3619;53.784;10.440;2023-02-01T07:16:19;3.80;99.90
7155;DHT22;3619;53.784;10.440;2023-02-01T07:18:46;3.70;99.90
7155;DHT22;3619;53.784;10.440;2023-02-01T07:21:13;3.70;99.90
7155;DHT22;3619;53.784;10.440;2023-02-01T07:23:40;3.70;99.90
7155;DHT22;3619;53.784;10.440;2023-02-01T07:26:13;3.70;99.90
7155;DHT22;3619;53.784;10.440;2023-02-01T07:28:42;3.70;99.90
7155;DHT22;3619;53.784;10.440;2023-02-01T07:31:10;3.80;99.90
7155;DHT22;3619;53.784;10.440;2023-02-01T07:33:38;3.80;99.90
7155;DHT22;3619;53.784;10.440;2023-02-01T07:36:07;3.80;99.90
7155;DHT22;3619;53.784;10.440;2023-02-01T07:38:36;3.80;99.90
7155;DHT22;3619;53.784;10.440;2023-02-01T07:41:05;3.80;99.90
7155;DHT22;3619;53.784;10.440;2023-02-01T07:43:36;3.80;99.90
7155;DHT22;3619;53.784;10.440;2023-02-01T07:46:04;3.90;99.90
7155;DHT22;3619;53.784;10.440;2023-02-01T07:48:31;3.90;99.90
7155;DHT22;3619;53.784;10.440;2023-02-01T07:51:00;3.90;99.90
7155;DHT22;3619;53.784;10.440;2023-02-01T07:53:28;3.90;99.90
7155;DHT22;3619;53.784;10.440;2023-02-01T07:55:57;3.90;99.90
7155;DHT22;3619;53.784;10.440;2023-02-01T07:58:26;4.00;99.90
7155;DHT22;3619;53.784;10.440;2023-02-01T08:00:55;4.00;99.90
7155;DHT22;3619;53.784;10.440;2023-02-01T08:03:39;4.10;99.90
7155;DHT22;3619;53.784;10.440;2023-02-01T08:06:06;4.20;99.90
7155;DHT22;3619;53.784;10.440;2023-02-01T08:08:34;4.30;99.90
7155;DHT22;3619;53.784;10.440;2023-02-01T08:11:05;4.40;99.90
7155;DHT22;3619;53.784;10.440;2023-02-01T08:13:33;4.50;99.90
7155;DHT22;3619;53.784;10.440;2023-02-01T08:16:03;4.60;99.90
7155;DHT22;3619;53.784;10.440;2023-02-01T08:18:30;4.70;99.90
7155;DHT22;3619;53.784;10.440;2023-02-01T08:21:01;4.80;99.90
7155;DHT22;3619;53.784;10.440;2023-02-01T08:23:29;4.80;99.90
7155;DHT22;3619;53.784;10.440;2023-02-01T08:26:04;4.90;99.90
7155;DHT22;3619;53.784;10.440;2023-02-01T08:28:33;5.00;99.90
7155;DHT22;3619;53.784;10.440;2023-02-01T08:31:05;5.00;99.90
7155;DHT22;3619;53.784;10.440;2023-02-01T08:33:33;5.10;99.90
7155;DHT22;3619;53.784;10.440;2023-02-01T08:36:01;5.20;99.90
7155;DHT22;3619;53.784;10.440;2023-02-01T08:38:34;5.30;99.90
7155;DHT22;3619;53.784;10.440;2023-02-01T08:41:05;5.40;99.90
7155;DHT22;3619;53.784;10.440;2023-02-01T08:43:34;5.40;99.90
7155;DHT22;3619;53.784;10.440;2023-02-01T08:46:06;5.40;99.90
7155;DHT22;3619;53.784;10.440;2023-02-01T08:48:33;5.40;99.90
7155;DHT22;3619;53.784;10.440;2023-02-01T08:51:01;5.40;99.90
7155;DHT22;3619;53.784;10.440;2023-02-01T08:53:29;5.40;99.90
7155;DHT22;3619;53.784;10.440;2023-02-01T08:55:55;5.50;99.90
7155;DHT22;3619;53.784;10.440;2023-02-01T08:58:22;5.50;99.90
7155;DHT22;3619;53.784;10.440;2023-02-01T09:00:49;5.50;99.90
7155;DHT22;3619;53.784;10.440;2023-02-01T09:03:21;5.50;99.90
7155;DHT22;3619;53.784;10.440;2023-02-01T09:05:48;5.50;99.90
7155;DHT22;3619;53.784;10.440;2023-02-01T09:08:14;5.40;99.90
7155;DHT22;3619;53.784;10.440;2023-02-01T09:10:42;5.40;99.90
7155;DHT22;3619;53.784;10.440;2023-02-01T09:13:09;5.30;99.90
7155;DHT22;3619;53.784;10.440;2023-02-01T09:15:37;5.30;99.90
7155;DHT22;3619;53.784;10.440;2023-02-01T09:18:07;5.30;99.90
7155;DHT22;3619;53.784;10.440;2023-02-01T09:20:44;5.30;99.90
7155;DHT22;3619;53.784;10.440;2023-02-01T09:23:11;5.40;99.90
7155;DHT22;3619;53.784;10.440;2023-02-01T09:25:38;5.40;99.90
7155;DHT22;3619;53.784;10.440;2023-02-01T09:28:05;5.30;99.90
7155;DHT22;3619;53.784;10.440;2023-02-01T09:30:36;5.20;99.90
7155;DHT22;3619;53.784;10.440;2023-02-01T09:33:03;5.10;99.90
7155;DHT22;3619;53.784;10.440;2023-02-01T09:35:30;4.80;99.90
7155;DHT22;3619;53.784;10.440;2023-02-01T09:37:59;4.70;99.90
7155;DHT22;3619;53.784;10.440;2023-02-01T09:40:25;4.60;99.90
7155;DHT22;3619;53.784;10.440;2023-02-01T09:43:11;4.70;99.90
7155;DHT22;3619;53.784;10.440;2023-02-01T09:45:47;4.80;99.90
7155;DHT22;3619;53.784;10.440;2023-02-01T09:48:17;4.80;99.90
7155;DHT22;3619;53.784;10.440;2023-02-01T09:50:55;4.80;99.90
7155;DHT22;3619;53.784;10.440;2023-02-01T09:53:27;4.80;99.90
7155;DHT22;3619;53.784;10.440;2023-02-01T09:55:59;5.00;99.90
7155;DHT22;3619;53.784;10.440;2023-02-01T09:58:32;5.00;99.90
7155;DHT22;3619;53.784;10.440;2023-02-01T10:01:03;5.00;99.90
7155;DHT22;3619;53.784;10.440;2023-02-01T10:03:33;5.10;99.90
7155;DHT22;3619;53.784;10.440;2023-02-01T10:06:28;5.30;99.90
7155;DHT22;3619;53.784;10.440;2023-02-01T10:09:17;5.50;99.90
7155;DHT22;3619;53.784;10.440;2023-02-01T10:12:00;5.70;99.90
7155;DHT22;3619;53.784;10.440;2023-02-01T10:14:51;5.70;99.90
7155;DHT22;3619;53.784;10.440;2023-02-01T10:17:37;5.80;99.90
7155;DHT22;3619;53.784;10.440;2023-02-01T10:20:17;5.80;99.90
7155;DHT22;3619;53.784;10.440;2023-02-01T10:22:54;5.90;99.90
7155;DHT22;3619;53.784;10.440;2023-02-01T10:25:32;5.90;99.90
7155;DHT22;3619;53.784;10.440;2023-02-01T10:28:03;5.90;99.90
7155;DHT22;3619;53.784;10.440;2023-02-01T10:30:37;5.80;99.90
7155;DHT22;3619;53.784;10.440;2023-02-01T10:33:15;5.80;99.90
7155;DHT22;3619;53.784;10.440;2023-02-01T10:35:44;5.80;99.90
7155;DHT22;3619;53.784;10.440;2023-02-01T10:38:22;6.00;99.90
7155;DHT22;3619;53.784;10.440;2023-02-01T10:40:57;6.30;99.90
7155;DHT22;3619;53.784;10.440;2023-02-01T10:43:27;6.40;99.90
7155;DHT22;3619;53.784;10.440;2023-02-01T10:45:55;6.40;99.90
7155;DHT22;3619;53.784;10.440;2023-02-01T10:48:22;6.30;99.90
7155;DHT22;3619;53.784;10.440;2023-02-01T10:50:54;6.20;99.90
7155;DHT22;3619;53.784;10.440;2023-02-01T10:53:28;6.20;99.90
7155;DHT22;3619;53.784;10.440;2023-02-01T10:55:57;6.10;99.90
7155;DHT22;3619;53.784;10.440;2023-02-01T10:58:33;6.20;99.90
7155;DHT22;3619;53.784;10.440;2023-02-01T11:01:03;6.30;99.90
7155;DHT22;3619;53.784;10.440;2023-02-01T11:03:34;6.30;99.90
7155;DHT22;3619;53.784;10.440;2023-02-01T11:06:17;6.10;99.90
7155;DHT22;3619;53.784;10.440;2023-02-01T11:08:52;6.20;99.90
7155;DHT22;3619;53.784;10.440;2023-02-01T11:11:24;6.00;99.90
7155;DHT22;3619;53.784;10.440;2023-02-01T11:13:57;5.80;99.90
7155;DHT22;3619;53.784;10.440;2023-02-01T11:16:38;5.60;99.90
7155;DHT22;3619;53.784;10.440;2023-02-01T11:19:06;5.60;99.90
7155;DHT22;3619;53.784;10.440;2023-02-01T11:21:34;5.60;99.90
7155;DHT22;3619;53.784;10.440;2023-02-01T11:24:05;5.60;99.90
7155;DHT22;3619;53.784;10.440;2023-02-01T11:26:40;5.60;99.90
7155;DHT22;3619;53.784;10.440;2023-02-01T11:29:11;5.50;99.90
7155;DHT22;3619;53.784;10.440;2023-02-01T11:31:39;5.50;99.90
7155;DHT22;3619;53.784;10.440;2023-02-01T11:34:12;5.50;99.90
7155;DHT22;3619;53.784;10.440;2023-02-01T11:36:40;5.60;99.90
7155;DHT22;3619;53.784;10.440;2023-02-01T11:39:12;5.60;99.90
7155;DHT22;3619;53.784;10.440;2023-02-01T11:41:55;5.60;99.90
7155;DHT22;3619;53.784;10.440;2023-02-01T11:44:31;5.60;99.90
7155;DHT22;3619;53.784;10.440;2023-02-01T11:47:38;5.60;99.90
7155;DHT22;3619;53.784;10.440;2023-02-01T11:50:22;5.50;99.90
7155;DHT22;3619;53.784;10.440;2023-02-01T11:53:18;4.90;99.90
7155;DHT22;3619;53.784;10.440;2023-02-01T11:55:59;4.70;99.90
7155;DHT22;3619;53.784;10.440;2023-02-01T12:05:44;4.90;99.90
7155;DHT22;3619;53.784;10.440;2023-02-01T12:08:26;5.10;99.90
7155;DHT22;3619;53.784;10.440;2023-02-01T12:11:19;4.90;99.90
7155;DHT22;3619;53.784;10.440;2023-02-01T12:14:08;4.80;99.90
7155;DHT22;3619;53.784;10.440;2023-02-01T12:16:53;4.70;99.90
7155;DHT22;3619;53.784;10.440;2023-02-01T12:19:33;4.70;99.90
7155;DHT22;3619;53.784;10.440;2023-02-01T12:22:24;4.70;99.90
7155;DHT22;3619;53.784;10.440;2023-02-01T12:25:24;4.70;99.90
7155;DHT22;3619;53.784;10.440;2023-02-01T12:28:36;4.80;99.90
7155;DHT22;3619;53.784;10.440;2023-02-01T12:31:34;4.90;99.90
7155;DHT22;3619;53.784;10.440;2023-02-01T12:34:19;5.10;99.90
7155;DHT22;3619;53.784;10.440;2023-02-01T12:46:48;5.40;99.90
7155;DHT22;3619;53.784;10.440;2023-02-01T12:49:47;5.30;99.90
7155;DHT22;3619;53.784;10.440;2023-02-01T12:52:36;5.20;99.90
7155;DHT22;3619;53.784;10.440;2023-02-01T12:55:20;5.00;99.90
7155;DHT22;3619;53.784;10.440;2023-02-01T12:57:58;4.90;99.90
7155;DHT22;3619;53.784;10.440;2023-02-01T13:00:41;4.70;99.90
7155;DHT22;3619;53.784;10.440;2023-02-01T13:03:21;4.60;99.90
7155;DHT22;3619;53.784;10.440;2023-02-01T13:05:58;4.60;99.90
7155;DHT22;3619;53.784;10.440;2023-02-01T13:08:43;4.50;99.90
7155;DHT22;3619;53.784;10.440;2023-02-01T13:11:16;4.50;99.90
7155;DHT22;3619;53.784;10.440;2023-02-01T13:13:55;4.50;99.90
7155;DHT22;3619;53.784;10.440;2023-02-01T13:16:34;4.50;99.90
7155;DHT22;3619;53.784;10.440;2023-02-01T13:19:16;4.40;99.90
7155;DHT22;3619;53.784;10.440;2023-02-01T13:21:47;4.40;99.90
7155;DHT22;3619;53.784;10.440;2023-02-01T13:24:36;4.20;99.90
7155;DHT22;3619;53.784;10.440;2023-02-01T13:27:16;4.10;99.90
7155;DHT22;3619;53.784;10.440;2023-02-01T13:29:49;3.90;99.90
7155;DHT22;3619;53.784;10.440;2023-02-01T13:33:03;3.80;99.90
7155;DHT22;3619;53.784;10.440;2023-02-01T13:36:13;3.70;99.90
7155;DHT22;3619;53.784;10.440;2023-02-01T13:39:24;3.60;99.90
7155;DHT22;3619;53.784;10.440;2023-02-01T13:41:57;3.50;99.90
7155;DHT22;3619;53.784;10.440;2023-02-01T13:44:31;3.40;99.90
7155;DHT22;3619;53.784;10.440;2023-02-01T13:47:02;3.50;99.90
7155;DHT22;3619;53.784;10.440;2023-02-01T13:49:39;3.50;99.90
7155;DHT22;3619;53.784;10.440;2023-02-01T13:52:26;3.40;99.90
7155;DHT22;3619;53.784;10.440;2023-02-01T13:55:16;3.30;99.90
7155;DHT22;3619;53.784;10.440;2023-02-01T13:58:00;3.30;99.90
7155;DHT22;3619;53.784;10.440;2023-02-01T14:00:31;3.40;99.90
7155;DHT22;3619;53.784;10.440;2023-02-01T14:03:11;3.30;99.90
7155;DHT22;3619;53.784;10.440;2023-02-01T14:06:00;3.40;99.90
7155;DHT22;3619;53.784;10.440;2023-02-01T14:08:42;3.50;99.90
7155;DHT22;3619;53.784;10.440;2023-02-01T14:11:34;3.50;99.90
7155;DHT22;3619;53.784;10.440;2023-02-01T14:17:38;3.70;99.90
7155;DHT22;3619;53.784;10.440;2023-02-01T14:20:38;3.70;99.90
7155;DHT22;3619;53.784;10.440;2023-02-01T14:23:13;3.80;99.90
7155;DHT22;3619;53.784;10.440;2023-02-01T14:25:43;3.90;99.90
7155;DHT22;3619;53.784;10.440;2023-02-01T14:28:12;3.90;99.90
7155;DHT22;3619;53.784;10.440;2023-02-01T14:30:42;4.00;99.90
7155;DHT22;3619;53.784;10.440;2023-02-01T14:33:20;4.00;99.90
7155;DHT22;3619;53.784;10.440;2023-02-01T14:36:05;4.00;99.90
7155;DHT22;3619;53.784;10.440;2023-02-01T14:38:36;4.00;99.90
7155;DHT22;3619;53.784;10.440;2023-02-01T14:41:32;4.10;99.90
7155;DHT22;3619;53.784;10.440;2023-02-01T14:44:25;4.20;99.90
7155;DHT22;3619;53.784;10.440;2023-02-01T14:50:23;4.20;99.90
7155;DHT22;3619;53.784;10.440;2023-02-01T14:53:04;4.20;99.90
7155;DHT22;3619;53.784;10.440;2023-02-01T14:55:43;4.20;99.90
7155;DHT22;3619;53.784;10.440;2023-02-01T14:58:23;4.10;99.90
7155;DHT22;3619;53.784;10.440;2023-02-01T15:00:55;4.10;99.90
7155;DHT22;3619;53.784;10.440;2023-02-01T15:06:24;4.00;99.90
7155;DHT22;3619;53.784;10.440;2023-02-01T15:08:59;4.00;99.90
7155;DHT22;3619;53.784;10.440;2023-02-01T15:11:27;4.00;99.90
7155;DHT22;3619;53.784;10.440;2023-02-01T15:13:55;4.00;99.90
7155;DHT22;3619;53.784;10.440;2023-02-01T15:16:24;4.00;99.90
7155;DHT22;3619;53.784;10.440;2023-02-01T15:19:07;4.00;99.90
7155;DHT22;3619;53.784;10.440;2023-02-01T15:21:43;4.10;99.90
7155;DHT22;3619;53.784;10.440;2023-02-01T15:24:11;4.10;99.90
7155;DHT22;3619;53.784;10.440;2023-02-01T15:26:38;4.20;99.90
7155;DHT22;3619;53.784;10.440;2023-02-01T15:29:14;4.20;99.90
7155;DHT22;3619;53.784;10.440;2023-02-01T15:31:44;4.20;99.90
7155;DHT22;3619;53.784;10.440;2023-02-01T15:34:12;4.20;99.90
7155;DHT22;3619;53.784;10.440;2023-02-01T15:36:40;4.30;99.90
7155;DHT22;3619;53.784;10.440;2023-02-01T15:39:19;4.30;99.90
7155;DHT22;3619;53.784;10.440;2023-02-01T15:41:50;4.40;99.90
7155;DHT22;3619;53.784;10.440;2023-02-01T15:44:27;4.40;99.90
7155;DHT22;3619;53.784;10.440;2023-02-01T15:46:55;4.50;99.90
7155;DHT22;3619;53.784;10.440;2023-02-01T15:49:26;4.50;99.90
7155;DHT22;3619;53.784;10.440;2023-02-01T15:51:54;4.50;99.90
7155;DHT22;3619;53.784;10.440;2023-02-01T15:54:25;4.50;99.90
7155;DHT22;3619;53.784;10.440;2023-02-01T15:56:56;4.50;99.90
7155;DHT22;3619;53.784;10.440;2023-02-01T15:59:30;4.50;99.90
7155;DHT22;3619;53.784;10.440;2023-02-01T16:01:58;4.50;99.90
7155;DHT22;3619;53.784;10.440;2023-02-01T16:04:29;4.50;99.90
7155;DHT22;3619;53.784;10.440;2023-02-01T16:06:58;4.50;99.90
7155;DHT22;3619;53.784;10.440;2023-02-01T16:09:36;4.50;99.90
7155;DHT22;3619;53.784;10.440;2023-02-01T16:12:04;4.50;99.90
7155;DHT22;3619;53.784;10.440;2023-02-01T16:14:47;4.50;99.90
7155;DHT22;3619;53.784;10.440;2023-02-01T16:17:14;4.50;99.90
7155;DHT22;3619;53.784;10.440;2023-02-01T16:19:41;4.50;99.90
7155;DHT22;3619;53.784;10.440;2023-02-01T16:22:11;4.50;99.90
7155;DHT22;3619;53.784;10.440;2023-02-01T16:24:39;4.50;99.90
7155;DHT22;3619;53.784;10.440;2023-02-01T16:27:05;4.50;99.90
7155;DHT22;3619;53.784;10.440;2023-02-01T16:29:33;4.50;99.90
7155;DHT22;3619;53.784;10.440;2023-02-01T16:32:01;4.50;99.90
7155;DHT22;3619;53.784;10.440;2023-02-01T16:34:28;4.60;99.90
7155;DHT22;3619;53.784;10.440;2023-02-01T16:37:05;4.60;99.90
7155;DHT22;3619;53.784;10.440;2023-02-01T16:39:36;4.60;99.90
7155;DHT22;3619;53.784;10.440;2023-02-01T16:42:10;4.60;99.90
7155;DHT22;3619;53.784;10.440;2023-02-01T16:44:38;4.50;99.90
7155;DHT22;3619;53.784;10.440;2023-02-01T16:47:16;4.50;99.90
7155;DHT22;3619;53.784;10.440;2023-02-01T16:49:44;4.50;99.90
7155;DHT22;3619;53.784;10.440;2023-02-01T16:52:15;4.60;99.90
7155;DHT22;3619;53.784;10.440;2023-02-01T16:54:42;4.60;99.90
7155;DHT22;3619;53.784;10.440;2023-02-01T16:57:12;4.60;99.90
7155;DHT22;3619;53.784;10.440;2023-02-01T16:59:43;4.60;99.90
7155;DHT22;3619;53.784;10.440;2023-02-01T17:02:13;4.50;99.90
7155;DHT22;3619;53.784;10.440;2023-02-01T17:04:41;4.60;99.90
7155;DHT22;3619;53.784;10.440;2023-02-01T17:07:12;4.70;99.90
7155;DHT22;3619;53.784;10.440;2023-02-01T17:09:44;4.80;99.90
7155;DHT22;3619;53.784;10.440;2023-02-01T17:12:19;4.90;99.90
7155;DHT22;3619;53.784;10.440;2023-02-01T17:14:47;4.90;99.90